sensor_id;sensor_type;location;lat;lon;timestamp;P1;durP1;ratioP1;P2;durP2;ratioP2
64885;SDS011;51514;52.206;5.114;2023-10-09T00:01:24;7.78;;;5.45;;
64885;SDS011;51514;52.206;5.114;2023-10-09T00:03:51;7.38;;;4.70;;
64885;SDS011;51514;52.206;5.114;2023-10-09T00:06:21;7.53;;;5.68;;
64885;SDS011;51514;52.206;5.114;2023-10-09T00:08:56;7.28;;;4.80;;
64885;SDS011;51514;52.206;5.114;2023-10-09T00:11:23;6.90;;;5.10;;
64885;SDS011;51514;52.206;5.114;2023-10-09T00:13:55;8.18;;;5.22;;
64885;SDS011;51514;52.206;5.114;2023-10-09T00:16:23;7.63;;;4.90;;
64885;SDS011;51514;52.206;5.114;2023-10-09T00:19:08;7.22;;;5.10;;
64885;SDS011;51514;52.206;5.114;2023-10-09T00:21:42;7.95;;;4.85;;
64885;SDS011;51514;52.206;5.114;2023-10-09T00:24:09;6.82;;;5.05;;
64885;SDS011;51514;52.206;5.114;2023-10-09T00:26:50;8.38;;;5.35;;
64885;SDS011;51514;52.206;5.114;2023-10-09T00:29:36;6.55;;;4.93;;
64885;SDS011;51514;52.206;5.114;2023-10-09T00:32:08;7.43;;;5.35;;
64885;SDS011;51514;52.206;5.114;2023-10-09T00:35:02;7.70;;;5.43;;
64885;SDS011;51514;52.206;5.114;2023-10-09T00:37:48;7.50;;;5.05;;
64885;SDS011;51514;52.206;5.114;2023-10-09T00:40:16;6.97;;;5.10;;
64885;SDS011;51514;52.206;5.114;2023-10-09T00:42:52;7.78;;;5.13;;
64885;SDS011;51514;52.206;5.114;2023-10-09T00:45:20;6.53;;;4.80;;
64885;SDS011;51514;52.206;5.114;2023-10-09T00:47:52;7.45;;;4.63;;
64885;SDS011;51514;52.206;5.114;2023-10-09T00:50:23;6.55;;;4.95;;
64885;SDS011;51514;52.206;5.114;2023-10-09T00:52:50;6.38;;;4.90;;
64885;SDS011;51514;52.206;5.114;2023-10-09T00:55:26;7.25;;;4.95;;
64885;SDS011;51514;52.206;5.114;2023-10-09T00:57:53;7.50;;;5.53;;
64885;SDS011;51514;52.206;5.114;2023-10-09T01:00:25;7.00;;;4.80;;
64885;SDS011;51514;52.206;5.114;2023-10-09T01:03:01;7.00;;;4.88;;
64885;SDS011;51514;52.206;5.114;2023-10-09T01:05:53;7.47;;;4.75;;
64885;SDS011;51514;52.206;5.114;2023-10-09T01:08:28;7.43;;;5.10;;
64885;SDS011;51514;52.206;5.114;2023-10-09T01:13:35;7.13;;;4.43;;
64885;SDS011;51514;52.206;5.114;2023-10-09T01:16:11;8.48;;;4.90;;
64885;SDS011;51514;52.206;5.114;2023-10-09T01:18:41;9.05;;;5.15;;
64885;SDS011;51514;52.206;5.114;2023-10-09T01:21:22;7.00;;;4.90;;
64885;SDS011;51514;52.206;5.114;2023-10-09T01:23:52;6.82;;;5.03;;
64885;SDS011;51514;52.206;5.114;2023-10-09T01:26:35;7.32;;;4.60;;
64885;SDS011;51514;52.206;5.114;2023-10-09T01:29:09;6.65;;;4.65;;
64885;SDS011;51514;52.206;5.114;2023-10-09T01:34:24;6.13;;;4.72;;
64885;SDS011;51514;52.206;5.114;2023-10-09T01:37:03;6.38;;;4.68;;
64885;SDS011;51514;52.206;5.114;2023-10-09T01:39:56;7.28;;;5.03;;
64885;SDS011;51514;52.206;5.114;2023-10-09T01:42:24;7.78;;;4.60;;
64885;SDS011;51514;52.206;5.114;2023-10-09T01:44:58;8.25;;;5.00;;
64885;SDS011;51514;52.206;5.114;2023-10-09T01:47:34;6.63;;;4.30;;
64885;SDS011;51514;52.206;5.114;2023-10-09T01:50:02;6.78;;;4.43;;
64885;SDS011;51514;52.206;5.114;2023-10-09T01:52:37;6.75;;;4.63;;
64885;SDS011;51514;52.206;5.114;2023-10-09T01:55:03;6.30;;;4.55;;
64885;SDS011;51514;52.206;5.114;2023-10-09T01:57:38;6.30;;;3.80;;
64885;SDS011;51514;52.206;5.114;2023-10-09T02:00:04;6.53;;;4.55;;
64885;SDS011;51514;52.206;5.114;2023-10-09T02:02:32;6.13;;;4.60;;
64885;SDS011;51514;52.206;5.114;2023-10-09T02:05:02;9.25;;;4.68;;
64885;SDS011;51514;52.206;5.114;2023-10-09T02:10:20;6.57;;;4.50;;
64885;SDS011;51514;52.206;5.114;2023-10-09T02:13:04;7.22;;;4.50;;
64885;SDS011;51514;52.206;5.114;2023-10-09T02:15:36;6.45;;;4.40;;
64885;SDS011;51514;52.206;5.114;2023-10-09T02:18:09;5.63;;;4.53;;
64885;SDS011;51514;52.206;5.114;2023-10-09T02:20:49;7.25;;;4.30;;
64885;SDS011;51514;52.206;5.114;2023-10-09T02:23:37;7.60;;;4.63;;
64885;SDS011;51514;52.206;5.114;2023-10-09T02:26:15;6.97;;;4.40;;
64885;SDS011;51514;52.206;5.114;2023-10-09T02:28:54;5.47;;;4.10;;
64885;SDS011;51514;52.206;5.114;2023-10-09T02:31:23;6.95;;;4.63;;
64885;SDS011;51514;52.206;5.114;2023-10-09T02:33:52;6.75;;;4.28;;
64885;SDS011;51514;52.206;5.114;2023-10-09T02:36:21;5.20;;;3.87;;
64885;SDS011;51514;52.206;5.114;2023-10-09T02:38:47;6.07;;;4.22;;
64885;SDS011;51514;52.206;5.114;2023-10-09T02:41:16;6.07;;;4.43;;
64885;SDS011;51514;52.206;5.114;2023-10-09T02:43:42;5.70;;;3.53;;
64885;SDS011;51514;52.206;5.114;2023-10-09T02:46:11;4.60;;;3.60;;
64885;SDS011;51514;52.206;5.114;2023-10-09T02:49:07;7.38;;;4.00;;
64885;SDS011;51514;52.206;5.114;2023-10-09T02:51:34;6.78;;;3.90;;
64885;SDS011;51514;52.206;5.114;2023-10-09T02:54:06;5.53;;;3.60;;
64885;SDS011;51514;52.206;5.114;2023-10-09T02:56:43;6.43;;;3.90;;
64885;SDS011;51514;52.206;5.114;2023-10-09T02:59:31;5.32;;;3.80;;
64885;SDS011;51514;52.206;5.114;2023-10-09T03:01:56;5.47;;;3.97;;
64885;SDS011;51514;52.206;5.114;2023-10-09T03:04:25;5.10;;;3.88;;
64885;SDS011;51514;52.206;5.114;2023-10-09T03:06:56;5.10;;;3.40;;
64885;SDS011;51514;52.206;5.114;2023-10-09T03:09:25;4.82;;;3.70;;
64885;SDS011;51514;52.206;5.114;2023-10-09T03:11:52;4.97;;;3.65;;
64885;SDS011;51514;52.206;5.114;2023-10-09T03:14:28;4.57;;;3.50;;
64885;SDS011;51514;52.206;5.114;2023-10-09T03:16:57;5.10;;;3.80;;
64885;SDS011;51514;52.206;5.114;2023-10-09T03:19:25;4.88;;;3.58;;
64885;SDS011;51514;52.206;5.114;2023-10-09T03:21:54;5.65;;;3.60;;
64885;SDS011;51514;52.206;5.114;2023-10-09T03:24:22;6.00;;;4.05;;
64885;SDS011;51514;52.206;5.114;2023-10-09T03:26:48;6.15;;;4.03;;
64885;SDS011;51514;52.206;5.114;2023-10-09T03:29:14;5.30;;;3.92;;
64885;SDS011;51514;52.206;5.114;2023-10-09T03:31:40;5.22;;;3.63;;
64885;SDS011;51514;52.206;5.114;2023-10-09T03:34:08;5.18;;;3.78;;
64885;SDS011;51514;52.206;5.114;2023-10-09T03:36:35;4.70;;;3.28;;
64885;SDS011;51514;52.206;5.114;2023-10-09T03:39:03;5.07;;;3.30;;
64885;SDS011;51514;52.206;5.114;2023-10-09T03:41:58;4.75;;;3.42;;
64885;SDS011;51514;52.206;5.114;2023-10-09T03:44:24;5.13;;;3.60;;
64885;SDS011;51514;52.206;5.114;2023-10-09T03:46:53;4.75;;;3.55;;
64885;SDS011;51514;52.206;5.114;2023-10-09T03:49:18;4.50;;;3.35;;
64885;SDS011;51514;52.206;5.114;2023-10-09T03:51:48;4.47;;;3.25;;
64885;SDS011;51514;52.206;5.114;2023-10-09T03:54:17;4.43;;;3.42;;
64885;SDS011;51514;52.206;5.114;2023-10-09T03:56:46;3.78;;;2.97;;
64885;SDS011;51514;52.206;5.114;2023-10-09T03:59:15;5.28;;;3.33;;
64885;SDS011;51514;52.206;5.114;2023-10-09T04:01:41;5.03;;;3.28;;
64885;SDS011;51514;52.206;5.114;2023-10-09T04:04:09;5.28;;;3.50;;
64885;SDS011;51514;52.206;5.114;2023-10-09T04:06:38;4.38;;;3.25;;
64885;SDS011;51514;52.206;5.114;2023-10-09T04:09:05;4.82;;;3.40;;
64885;SDS011;51514;52.206;5.114;2023-10-09T04:11:47;4.95;;;3.42;;
64885;SDS011;51514;52.206;5.114;2023-10-09T04:17:01;4.68;;;3.28;;
64885;SDS011;51514;52.206;5.114;2023-10-09T04:19:31;4.40;;;3.33;;
64885;SDS011;51514;52.206;5.114;2023-10-09T04:22:13;5.15;;;3.53;;
64885;SDS011;51514;52.206;5.114;2023-10-09T04:24:51;4.43;;;3.47;;
64885;SDS011;51514;52.206;5.114;2023-10-09T04:27:16;8.57;;;3.80;;
64885;SDS011;51514;52.206;5.114;2023-10-09T04:29:42;4.60;;;3.22;;
64885;SDS011;51514;52.206;5.114;2023-10-09T04:32:12;4.30;;;3.00;;
64885;SDS011;51514;52.206;5.114;2023-10-09T04:34:41;4.78;;;3.50;;
64885;SDS011;51514;52.206;5.114;2023-10-09T04:37:13;4.25;;;2.97;;
64885;SDS011;51514;52.206;5.114;2023-10-09T04:39:39;4.72;;;3.70;;
64885;SDS011;51514;52.206;5.114;2023-10-09T04:42:12;4.63;;;3.08;;
64885;SDS011;51514;52.206;5.114;2023-10-09T04:44:45;7.18;;;3.65;;
64885;SDS011;51514;52.206;5.114;2023-10-09T04:47:36;5.68;;;3.67;;
64885;SDS011;51514;52.206;5.114;2023-10-09T04:50:03;4.85;;;3.65;;
64885;SDS011;51514;52.206;5.114;2023-10-09T04:52:39;4.78;;;3.50;;
64885;SDS011;51514;52.206;5.114;2023-10-09T04:55:06;5.35;;;3.47;;
64885;SDS011;51514;52.206;5.114;2023-10-09T04:57:50;5.05;;;3.45;;
64885;SDS011;51514;52.206;5.114;2023-10-09T05:00:26;5.38;;;3.53;;
64885;SDS011;51514;52.206;5.114;2023-10-09T05:02:52;4.53;;;3.20;;
64885;SDS011;51514;52.206;5.114;2023-10-09T05:05:22;4.20;;;2.75;;
64885;SDS011;51514;52.206;5.114;2023-10-09T05:08:14;4.85;;;3.53;;
64885;SDS011;51514;52.206;5.114;2023-10-09T05:10:47;4.40;;;3.17;;
64885;SDS011;51514;52.206;5.114;2023-10-09T05:13:40;4.45;;;3.00;;
64885;SDS011;51514;52.206;5.114;2023-10-09T05:16:13;4.80;;;3.28;;
64885;SDS011;51514;52.206;5.114;2023-10-09T05:18:46;4.57;;;3.17;;
64885;SDS011;51514;52.206;5.114;2023-10-09T05:21:39;7.93;;;3.20;;
64885;SDS011;51514;52.206;5.114;2023-10-09T05:24:08;5.00;;;3.38;;
64885;SDS011;51514;52.206;5.114;2023-10-09T05:26:37;4.15;;;3.13;;
64885;SDS011;51514;52.206;5.114;2023-10-09T05:29:21;6.50;;;3.47;;
64885;SDS011;51514;52.206;5.114;2023-10-09T05:31:57;4.15;;;2.90;;
64885;SDS011;51514;52.206;5.114;2023-10-09T05:34:24;4.05;;;3.05;;
64885;SDS011;51514;52.206;5.114;2023-10-09T05:36:58;5.03;;;3.58;;
64885;SDS011;51514;52.206;5.114;2023-10-09T05:39:42;6.35;;;3.72;;
64885;SDS011;51514;52.206;5.114;2023-10-09T05:42:09;4.88;;;3.20;;
64885;SDS011;51514;52.206;5.114;2023-10-09T05:44:43;4.38;;;2.67;;
64885;SDS011;51514;52.206;5.114;2023-10-09T05:47:21;4.40;;;3.10;;
64885;SDS011;51514;52.206;5.114;2023-10-09T05:49:58;4.72;;;3.13;;
64885;SDS011;51514;52.206;5.114;2023-10-09T05:52:46;3.83;;;2.80;;
64885;SDS011;51514;52.206;5.114;2023-10-09T05:55:17;5.80;;;3.65;;
64885;SDS011;51514;52.206;5.114;2023-10-09T05:57:49;4.60;;;2.90;;
64885;SDS011;51514;52.206;5.114;2023-10-09T06:00:36;4.20;;;2.90;;
64885;SDS011;51514;52.206;5.114;2023-10-09T06:03:20;5.22;;;3.00;;
64885;SDS011;51514;52.206;5.114;2023-10-09T06:05:50;5.68;;;3.65;;
64885;SDS011;51514;52.206;5.114;2023-10-09T06:08:17;6.40;;;3.50;;
64885;SDS011;51514;52.206;5.114;2023-10-09T06:10:50;4.80;;;3.10;;
64885;SDS011;51514;52.206;5.114;2023-10-09T06:13:30;4.85;;;3.40;;
64885;SDS011;51514;52.206;5.114;2023-10-09T06:16:03;5.60;;;3.17;;
64885;SDS011;51514;52.206;5.114;2023-10-09T06:18:45;5.30;;;3.10;;
64885;SDS011;51514;52.206;5.114;2023-10-09T06:21:19;4.70;;;3.30;;
64885;SDS011;51514;52.206;5.114;2023-10-09T06:24:06;6.43;;;2.85;;
64885;SDS011;51514;52.206;5.114;2023-10-09T06:26:40;5.30;;;3.22;;
64885;SDS011;51514;52.206;5.114;2023-10-09T06:29:16;9.38;;;3.40;;
64885;SDS011;51514;52.206;5.114;2023-10-09T06:31:55;6.35;;;3.60;;
64885;SDS011;51514;52.206;5.114;2023-10-09T06:34:27;5.57;;;3.22;;
64885;SDS011;51514;52.206;5.114;2023-10-09T06:37:00;4.80;;;3.50;;
64885;SDS011;51514;52.206;5.114;2023-10-09T06:39:42;5.75;;;3.30;;
64885;SDS011;51514;52.206;5.114;2023-10-09T06:42:27;4.90;;;3.40;;
64885;SDS011;51514;52.206;5.114;2023-10-09T06:44:59;6.00;;;3.33;;
64885;SDS011;51514;52.206;5.114;2023-10-09T06:47:36;5.05;;;3.55;;
64885;SDS011;51514;52.206;5.114;2023-10-09T06:50:18;5.03;;;3.17;;
64885;SDS011;51514;52.206;5.114;2023-10-09T06:52:47;9.05;;;3.60;;
64885;SDS011;51514;52.206;5.114;2023-10-09T06:55:35;5.55;;;3.45;;
64885;SDS011;51514;52.206;5.114;2023-10-09T06:58:13;4.80;;;3.35;;
64885;SDS011;51514;52.206;5.114;2023-10-09T07:00:50;4.47;;;3.13;;
64885;SDS011;51514;52.206;5.114;2023-10-09T07:03:34;4.80;;;3.63;;
64885;SDS011;51514;52.206;5.114;2023-10-09T07:06:06;5.93;;;3.50;;
64885;SDS011;51514;52.206;5.114;2023-10-09T07:08:49;4.38;;;2.95;;
64885;SDS011;51514;52.206;5.114;2023-10-09T07:14:09;5.82;;;3.28;;
64885;SDS011;51514;52.206;5.114;2023-10-09T07:17:04;5.30;;;3.22;;
64885;SDS011;51514;52.206;5.114;2023-10-09T07:19:50;6.88;;;3.72;;
64885;SDS011;51514;52.206;5.114;2023-10-09T07:22:16;5.68;;;2.92;;
64885;SDS011;51514;52.206;5.114;2023-10-09T07:24:44;6.88;;;3.33;;
64885;SDS011;51514;52.206;5.114;2023-10-09T07:27:16;6.10;;;3.20;;
64885;SDS011;51514;52.206;5.114;2023-10-09T07:29:42;4.68;;;3.00;;
64885;SDS011;51514;52.206;5.114;2023-10-09T07:32:17;5.50;;;3.15;;
64885;SDS011;51514;52.206;5.114;2023-10-09T07:34:46;8.32;;;3.55;;
64885;SDS011;51514;52.206;5.114;2023-10-09T07:37:21;6.03;;;3.58;;
64885;SDS011;51514;52.206;5.114;2023-10-09T07:39:49;8.20;;;4.00;;
64885;SDS011;51514;52.206;5.114;2023-10-09T07:42:23;5.60;;;3.72;;
64885;SDS011;51514;52.206;5.114;2023-10-09T07:45:00;5.07;;;3.17;;
64885;SDS011;51514;52.206;5.114;2023-10-09T07:47:36;5.35;;;3.70;;
64885;SDS011;51514;52.206;5.114;2023-10-09T07:50:28;8.77;;;3.55;;
64885;SDS011;51514;52.206;5.114;2023-10-09T07:53:06;5.82;;;3.28;;
64885;SDS011;51514;52.206;5.114;2023-10-09T07:55:51;6.03;;;3.50;;
64885;SDS011;51514;52.206;5.114;2023-10-09T07:58:24;6.07;;;3.60;;
64885;SDS011;51514;52.206;5.114;2023-10-09T08:00:53;6.40;;;3.50;;
64885;SDS011;51514;52.206;5.114;2023-10-09T08:03:38;4.32;;;3.13;;
64885;SDS011;51514;52.206;5.114;2023-10-09T08:06:03;5.45;;;3.40;;
64885;SDS011;51514;52.206;5.114;2023-10-09T08:08:52;5.82;;;3.60;;
64885;SDS011;51514;52.206;5.114;2023-10-09T08:11:36;5.40;;;3.33;;
64885;SDS011;51514;52.206;5.114;2023-10-09T08:14:10;5.65;;;3.80;;
64885;SDS011;51514;52.206;5.114;2023-10-09T08:16:55;6.03;;;4.20;;
64885;SDS011;51514;52.206;5.114;2023-10-09T08:19:39;5.93;;;3.53;;
64885;SDS011;51514;52.206;5.114;2023-10-09T08:22:36;5.40;;;3.63;;
64885;SDS011;51514;52.206;5.114;2023-10-09T08:25:11;5.97;;;3.50;;
64885;SDS011;51514;52.206;5.114;2023-10-09T08:27:59;6.75;;;3.65;;
64885;SDS011;51514;52.206;5.114;2023-10-09T08:30:46;7.75;;;3.50;;
64885;SDS011;51514;52.206;5.114;2023-10-09T08:33:16;4.50;;;3.40;;
64885;SDS011;51514;52.206;5.114;2023-10-09T08:35:53;5.35;;;3.40;;
64885;SDS011;51514;52.206;5.114;2023-10-09T08:38:27;5.18;;;3.22;;
64885;SDS011;51514;52.206;5.114;2023-10-09T08:40:58;6.25;;;3.60;;
64885;SDS011;51514;52.206;5.114;2023-10-09T08:43:41;8.35;;;4.80;;
64885;SDS011;51514;52.206;5.114;2023-10-09T08:46:22;5.55;;;3.28;;
64885;SDS011;51514;52.206;5.114;2023-10-09T08:48:51;5.75;;;3.42;;
64885;SDS011;51514;52.206;5.114;2023-10-09T08:51:19;5.93;;;3.28;;
64885;SDS011;51514;52.206;5.114;2023-10-09T08:53:45;5.00;;;2.90;;
64885;SDS011;51514;52.206;5.114;2023-10-09T08:56:12;5.15;;;3.40;;
64885;SDS011;51514;52.206;5.114;2023-10-09T08:58:44;6.22;;;3.13;;
64885;SDS011;51514;52.206;5.114;2023-10-09T09:01:10;7.80;;;3.20;;
64885;SDS011;51514;52.206;5.114;2023-10-09T09:03:42;5.45;;;3.45;;
64885;SDS011;51514;52.206;5.114;2023-10-09T09:06:10;6.00;;;3.15;;
64885;SDS011;51514;52.206;5.114;2023-10-09T09:08:39;4.70;;;2.90;;
64885;SDS011;51514;52.206;5.114;2023-10-09T09:13:40;5.57;;;3.03;;
64885;SDS011;51514;52.206;5.114;2023-10-09T09:16:22;4.30;;;2.90;;
64885;SDS011;51514;52.206;5.114;2023-10-09T09:21:28;6.40;;;3.40;;
64885;SDS011;51514;52.206;5.114;2023-10-09T09:23:58;4.72;;;3.45;;
64885;SDS011;51514;52.206;5.114;2023-10-09T09:26:36;5.20;;;3.38;;
64885;SDS011;51514;52.206;5.114;2023-10-09T09:29:06;5.82;;;3.33;;
64885;SDS011;51514;52.206;5.114;2023-10-09T09:31:32;3.97;;;2.63;;
64885;SDS011;51514;52.206;5.114;2023-10-09T09:34:03;4.35;;;3.10;;
64885;SDS011;51514;52.206;5.114;2023-10-09T09:36:37;4.82;;;2.88;;
64885;SDS011;51514;52.206;5.114;2023-10-09T09:39:03;4.72;;;3.00;;
64885;SDS011;51514;52.206;5.114;2023-10-09T09:41:30;5.35;;;3.17;;
64885;SDS011;51514;52.206;5.114;2023-10-09T09:43:58;5.70;;;3.47;;
64885;SDS011;51514;52.206;5.114;2023-10-09T09:46:33;4.82;;;2.90;;
64885;SDS011;51514;52.206;5.114;2023-10-09T09:49:05;5.22;;;3.17;;
64885;SDS011;51514;52.206;5.114;2023-10-09T09:51:41;5.28;;;2.88;;
64885;SDS011;51514;52.206;5.114;2023-10-09T09:54:11;4.00;;;2.67;;
64885;SDS011;51514;52.206;5.114;2023-10-09T09:56:40;4.97;;;3.30;;
64885;SDS011;51514;52.206;5.114;2023-10-09T10:01:46;4.78;;;3.13;;
64885;SDS011;51514;52.206;5.114;2023-10-09T10:04:21;4.38;;;3.10;;
64885;SDS011;51514;52.206;5.114;2023-10-09T10:06:51;5.47;;;3.33;;
64885;SDS011;51514;52.206;5.114;2023-10-09T10:12:04;4.95;;;3.03;;
64885;SDS011;51514;52.206;5.114;2023-10-09T10:14:51;4.05;;;2.92;;
64885;SDS011;51514;52.206;5.114;2023-10-09T10:17:18;5.50;;;3.13;;
64885;SDS011;51514;52.206;5.114;2023-10-09T10:20:03;4.57;;;2.90;;
64885;SDS011;51514;52.206;5.114;2023-10-09T10:22:49;5.47;;;3.25;;
64885;SDS011;51514;52.206;5.114;2023-10-09T10:28:16;5.13;;;3.47;;
64885;SDS011;51514;52.206;5.114;2023-10-09T10:30:54;4.75;;;3.10;;
64885;SDS011;51514;52.206;5.114;2023-10-09T10:33:20;4.85;;;3.38;;
64885;SDS011;51514;52.206;5.114;2023-10-09T10:35:47;5.28;;;3.67;;
64885;SDS011;51514;52.206;5.114;2023-10-09T10:38:27;5.38;;;2.97;;
64885;SDS011;51514;52.206;5.114;2023-10-09T10:43:56;6.25;;;3.25;;
64885;SDS011;51514;52.206;5.114;2023-10-09T10:46:24;4.93;;;3.33;;
64885;SDS011;51514;52.206;5.114;2023-10-09T10:48:55;5.03;;;3.28;;
64885;SDS011;51514;52.206;5.114;2023-10-09T10:51:27;3.88;;;2.88;;
64885;SDS011;51514;52.206;5.114;2023-10-09T10:54:05;5.63;;;3.35;;
64885;SDS011;51514;52.206;5.114;2023-10-09T10:56:50;6.68;;;3.95;;
64885;SDS011;51514;52.206;5.114;2023-10-09T10:59:16;7.90;;;3.50;;
64885;SDS011;51514;52.206;5.114;2023-10-09T11:01:49;5.65;;;3.67;;
64885;SDS011;51514;52.206;5.114;2023-10-09T11:04:23;6.03;;;3.60;;
64885;SDS011;51514;52.206;5.114;2023-10-09T11:07:10;6.20;;;3.25;;
64885;SDS011;51514;52.206;5.114;2023-10-09T11:09:47;5.30;;;3.10;;
64885;SDS011;51514;52.206;5.114;2023-10-09T11:12:45;7.82;;;3.67;;
64885;SDS011;51514;52.206;5.114;2023-10-09T11:15:17;5.95;;;3.40;;
64885;SDS011;51514;52.206;5.114;2023-10-09T11:18:06;8.45;;;3.75;;
64885;SDS011;51514;52.206;5.114;2023-10-09T11:20:39;6.20;;;3.55;;
64885;SDS011;51514;52.206;5.114;2023-10-09T11:23:04;6.07;;;3.42;;
64885;SDS011;51514;52.206;5.114;2023-10-09T11:25:37;9.82;;;3.85;;
64885;SDS011;51514;52.206;5.114;2023-10-09T11:28:20;7.93;;;3.63;;
64885;SDS011;51514;52.206;5.114;2023-10-09T11:31:11;7.43;;;3.33;;
64885;SDS011;51514;52.206;5.114;2023-10-09T11:33:47;5.72;;;3.40;;
64885;SDS011;51514;52.206;5.114;2023-10-09T11:36:14;6.13;;;3.17;;
64885;SDS011;51514;52.206;5.114;2023-10-09T11:38:41;9.65;;;3.50;;
64885;SDS011;51514;52.206;5.114;2023-10-09T11:41:16;7.00;;;3.50;;
64885;SDS011;51514;52.206;5.114;2023-10-09T11:43:49;6.45;;;3.15;;
64885;SDS011;51514;52.206;5.114;2023-10-09T11:46:17;7.32;;;3.53;;
64885;SDS011;51514;52.206;5.114;2023-10-09T11:49:09;5.28;;;3.13;;
64885;SDS011;51514;52.206;5.114;2023-10-09T11:51:47;5.75;;;3.35;;
64885;SDS011;51514;52.206;5.114;2023-10-09T11:54:32;8.88;;;3.70;;
64885;SDS011;51514;52.206;5.114;2023-10-09T11:56:58;6.35;;;3.63;;
64885;SDS011;51514;52.206;5.114;2023-10-09T11:59:29;6.57;;;3.50;;
64885;SDS011;51514;52.206;5.114;2023-10-09T12:02:05;5.43;;;3.25;;
64885;SDS011;51514;52.206;5.114;2023-10-09T12:04:37;6.07;;;3.58;;
64885;SDS011;51514;52.206;5.114;2023-10-09T12:07:06;6.07;;;3.13;;
64885;SDS011;51514;52.206;5.114;2023-10-09T12:09:38;4.43;;;3.03;;
64885;SDS011;51514;52.206;5.114;2023-10-09T12:12:04;6.05;;;3.88;;
64885;SDS011;51514;52.206;5.114;2023-10-09T12:14:31;7.75;;;3.53;;
64885;SDS011;51514;52.206;5.114;2023-10-09T12:17:02;4.30;;;3.08;;
64885;SDS011;51514;52.206;5.114;2023-10-09T12:19:37;5.70;;;3.22;;
64885;SDS011;51514;52.206;5.114;2023-10-09T12:22:05;6.13;;;3.17;;
64885;SDS011;51514;52.206;5.114;2023-10-09T12:24:31;7.93;;;3.90;;
64885;SDS011;51514;52.206;5.114;2023-10-09T12:27:01;5.10;;;3.60;;
64885;SDS011;51514;52.206;5.114;2023-10-09T12:29:26;6.30;;;3.92;;
64885;SDS011;51514;52.206;5.114;2023-10-09T12:31:58;9.15;;;3.80;;
64885;SDS011;51514;52.206;5.114;2023-10-09T12:34:24;7.57;;;3.28;;
64885;SDS011;51514;52.206;5.114;2023-10-09T12:36:52;5.07;;;3.10;;
64885;SDS011;51514;52.206;5.114;2023-10-09T12:39:18;7.20;;;4.00;;
64885;SDS011;51514;52.206;5.114;2023-10-09T12:41:44;6.90;;;3.38;;
64885;SDS011;51514;52.206;5.114;2023-10-09T12:44:10;6.95;;;3.50;;
64885;SDS011;51514;52.206;5.114;2023-10-09T12:46:45;5.40;;;3.40;;
64885;SDS011;51514;52.206;5.114;2023-10-09T12:49:20;7.25;;;3.92;;
64885;SDS011;51514;52.206;5.114;2023-10-09T12:51:54;6.78;;;3.55;;
64885;SDS011;51514;52.206;5.114;2023-10-09T12:54:21;5.68;;;3.40;;
64885;SDS011;51514;52.206;5.114;2023-10-09T12:56:51;7.25;;;3.83;;
64885;SDS011;51514;52.206;5.114;2023-10-09T12:59:17;4.97;;;3.40;;
64885;SDS011;51514;52.206;5.114;2023-10-09T13:01:44;8.32;;;3.65;;
64885;SDS011;51514;52.206;5.114;2023-10-09T13:04:11;6.03;;;3.30;;
64885;SDS011;51514;52.206;5.114;2023-10-09T13:06:39;7.60;;;3.55;;
64885;SDS011;51514;52.206;5.114;2023-10-09T13:09:13;6.10;;;3.72;;
64885;SDS011;51514;52.206;5.114;2023-10-09T13:11:40;6.80;;;4.13;;
64885;SDS011;51514;52.206;5.114;2023-10-09T13:14:06;6.60;;;3.72;;
64885;SDS011;51514;52.206;5.114;2023-10-09T13:16:42;4.30;;;3.13;;
64885;SDS011;51514;52.206;5.114;2023-10-09T13:19:10;6.75;;;3.63;;
64885;SDS011;51514;52.206;5.114;2023-10-09T13:21:36;7.15;;;4.03;;
64885;SDS011;51514;52.206;5.114;2023-10-09T13:24:05;7.10;;;4.13;;
64885;SDS011;51514;52.206;5.114;2023-10-09T13:26:37;5.80;;;3.33;;
64885;SDS011;51514;52.206;5.114;2023-10-09T13:29:03;6.35;;;3.45;;
64885;SDS011;51514;52.206;5.114;2023-10-09T13:31:29;6.85;;;3.70;;
64885;SDS011;51514;52.206;5.114;2023-10-09T13:33:59;6.95;;;3.85;;
64885;SDS011;51514;52.206;5.114;2023-10-09T13:36:26;7.47;;;3.53;;
64885;SDS011;51514;52.206;5.114;2023-10-09T13:38:55;7.38;;;3.45;;
64885;SDS011;51514;52.206;5.114;2023-10-09T13:41:22;5.50;;;3.53;;
64885;SDS011;51514;52.206;5.114;2023-10-09T13:43:53;6.57;;;3.42;;
64885;SDS011;51514;52.206;5.114;2023-10-09T13:46:18;7.93;;;3.83;;
64885;SDS011;51514;52.206;5.114;2023-10-09T13:48:44;6.10;;;3.50;;
64885;SDS011;51514;52.206;5.114;2023-10-09T13:51:12;6.50;;;4.03;;
64885;SDS011;51514;52.206;5.114;2023-10-09T13:53:48;5.45;;;3.47;;
64885;SDS011;51514;52.206;5.114;2023-10-09T13:56:18;7.22;;;3.78;;
64885;SDS011;51514;52.206;5.114;2023-10-09T13:58:48;6.03;;;3.50;;
64885;SDS011;51514;52.206;5.114;2023-10-09T14:01:17;6.20;;;3.42;;
64885;SDS011;51514;52.206;5.114;2023-10-09T14:04:01;6.03;;;3.97;;
64885;SDS011;51514;52.206;5.114;2023-10-09T14:06:26;5.15;;;3.30;;
64885;SDS011;51514;52.206;5.114;2023-10-09T14:13:51;5.50;;;3.42;;
64885;SDS011;51514;52.206;5.114;2023-10-09T14:16:17;6.80;;;3.20;;
64885;SDS011;51514;52.206;5.114;2023-10-09T14:18:58;5.85;;;3.40;;
64885;SDS011;51514;52.206;5.114;2023-10-09T14:21:26;5.78;;;3.50;;
64885;SDS011;51514;52.206;5.114;2023-10-09T14:24:06;6.68;;;3.60;;
64885;SDS011;51514;52.206;5.114;2023-10-09T14:26:41;4.72;;;3.13;;
64885;SDS011;51514;52.206;5.114;2023-10-09T14:29:10;7.57;;;4.22;;
64885;SDS011;51514;52.206;5.114;2023-10-09T14:31:35;5.68;;;3.65;;
64885;SDS011;51514;52.206;5.114;2023-10-09T14:34:04;8.07;;;3.55;;
64885;SDS011;51514;52.206;5.114;2023-10-09T14:36:30;7.75;;;4.00;;
64885;SDS011;51514;52.206;5.114;2023-10-09T14:38:58;5.90;;;3.67;;
64885;SDS011;51514;52.206;5.114;2023-10-09T14:41:29;6.45;;;3.80;;
64885;SDS011;51514;52.206;5.114;2023-10-09T14:43:58;7.85;;;3.65;;
64885;SDS011;51514;52.206;5.114;2023-10-09T14:46:24;6.22;;;3.72;;
64885;SDS011;51514;52.206;5.114;2023-10-09T14:51:21;6.95;;;3.35;;
64885;SDS011;51514;52.206;5.114;2023-10-09T14:53:57;6.25;;;3.60;;
64885;SDS011;51514;52.206;5.114;2023-10-09T14:56:23;6.25;;;3.90;;
64885;SDS011;51514;52.206;5.114;2023-10-09T14:58:53;6.55;;;3.53;;
64885;SDS011;51514;52.206;5.114;2023-10-09T15:01:23;7.78;;;3.95;;
64885;SDS011;51514;52.206;5.114;2023-10-09T15:03:50;5.22;;;3.60;;
64885;SDS011;51514;52.206;5.114;2023-10-09T15:06:22;6.07;;;3.80;;
64885;SDS011;51514;52.206;5.114;2023-10-09T15:08:48;7.57;;;3.88;;
64885;SDS011;51514;52.206;5.114;2023-10-09T15:11:14;6.53;;;3.50;;
64885;SDS011;51514;52.206;5.114;2023-10-09T15:13:40;7.20;;;3.55;;
64885;SDS011;51514;52.206;5.114;2023-10-09T15:16:05;6.80;;;3.55;;
64885;SDS011;51514;52.206;5.114;2023-10-09T15:18:30;6.60;;;3.60;;
64885;SDS011;51514;52.206;5.114;2023-10-09T15:21:02;9.30;;;4.90;;
64885;SDS011;51514;52.206;5.114;2023-10-09T15:23:27;8.10;;;4.68;;
64885;SDS011;51514;52.206;5.114;2023-10-09T15:25:53;9.40;;;4.95;;
64885;SDS011;51514;52.206;5.114;2023-10-09T15:28:19;9.77;;;5.10;;
64885;SDS011;51514;52.206;5.114;2023-10-09T15:30:45;7.55;;;4.53;;
64885;SDS011;51514;52.206;5.114;2023-10-09T15:33:13;11.00;;;4.57;;
64885;SDS011;51514;52.206;5.114;2023-10-09T15:35:42;7.43;;;4.40;;
64885;SDS011;51514;52.206;5.114;2023-10-09T15:38:14;8.52;;;5.60;;
64885;SDS011;51514;52.206;5.114;2023-10-09T15:40:40;10.85;;;4.88;;
64885;SDS011;51514;52.206;5.114;2023-10-09T15:43:09;8.40;;;4.25;;
64885;SDS011;51514;52.206;5.114;2023-10-09T15:48:07;21.25;;;6.72;;
64885;SDS011;51514;52.206;5.114;2023-10-09T15:50:33;18.08;;;6.88;;
64885;SDS011;51514;52.206;5.114;2023-10-09T15:52:59;15.15;;;7.10;;
64885;SDS011;51514;52.206;5.114;2023-10-09T15:55:27;18.83;;;7.45;;
64885;SDS011;51514;52.206;5.114;2023-10-09T15:57:53;17.92;;;8.40;;
64885;SDS011;51514;52.206;5.114;2023-10-09T16:02:53;21.60;;;8.93;;
64885;SDS011;51514;52.206;5.114;2023-10-09T16:05:19;23.52;;;8.27;;